Weather at Meghauli Airport

Public forecast

Using degrees Celsius for public forecast. Weather courtesy of forecast.io.

Closest aviation weather report (METAR) to Meghauli Airport

Report is more than 6 hours old.

Closest report is Kushinagar International Airport, 51.4 nm (95.2 km) SSW.

2024/05/20 13:00 (retrieved 13 hours ago)

VEKI 201300Z 08006KT 5000 HZ FEW025 27/22 Q1002 NOSIG

Closest aviation forecast (TAF) to Meghauli Airport

Forecast is more than 12 hours old.

Closest forecast is Gorakhpur Airport, 65.3 nm (120.9 km) SW.

2024/05/20 12:00 (retrieved 14 hours ago)

TAF VEGK 200930Z 2012/2024 12008KT 6000 FEW025 SCT250 TEMPO 2012/2015 12010G20KT FEW030CB